sensor_id;sensor_type;location;lat;lon;timestamp;pressure;altitude;pressure_sealevel;temperature;humidity
3598;BME280;1813;52.016;8.714;2023-03-20T00:00:32;-16261.94;;;-139.71;80.03
3598;BME280;1813;52.016;8.714;2023-03-20T00:03:09;-16261.94;;;-139.71;80.51
3598;BME280;1813;52.016;8.714;2023-03-20T00:05:44;-16261.94;;;-139.71;80.67
3598;BME280;1813;52.016;8.714;2023-03-20T00:08:18;-16261.94;;;-139.71;80.49
3598;BME280;1813;52.016;8.714;2023-03-20T00:10:52;-16261.94;;;-139.71;80.39
3598;BME280;1813;52.016;8.714;2023-03-20T00:13:26;-16261.94;;;-139.71;80.20
3598;BME280;1813;52.016;8.714;2023-03-20T00:16:00;-16261.94;;;-139.71;80.50
3598;BME280;1813;52.016;8.714;2023-03-20T00:18:37;-16261.94;;;-139.71;80.69
3598;BME280;1813;52.016;8.714;2023-03-20T00:21:14;-16261.94;;;-139.71;81.02
3598;BME280;1813;52.016;8.714;2023-03-20T00:23:49;-16261.94;;;-139.71;81.35
3598;BME280;1813;52.016;8.714;2023-03-20T00:26:25;-16261.94;;;-139.71;81.57
3598;BME280;1813;52.016;8.714;2023-03-20T00:29:00;-16261.94;;;-139.71;81.95
3598;BME280;1813;52.016;8.714;2023-03-20T00:31:35;-16261.94;;;-139.71;82.22
3598;BME280;1813;52.016;8.714;2023-03-20T00:34:14;-16261.94;;;-139.71;82.27
3598;BME280;1813;52.016;8.714;2023-03-20T00:36:50;-16261.94;;;-139.71;81.99
3598;BME280;1813;52.016;8.714;2023-03-20T00:39:24;-16261.94;;;-139.71;81.92
3598;BME280;1813;52.016;8.714;2023-03-20T00:42:01;-16261.94;;;-139.71;81.32
3598;BME280;1813;52.016;8.714;2023-03-20T00:44:37;-16261.94;;;-139.71;81.82
3598;BME280;1813;52.016;8.714;2023-03-20T00:47:16;-16261.94;;;-139.71;82.21
3598;BME280;1813;52.016;8.714;2023-03-20T00:49:54;-16261.94;;;-139.71;82.77
3598;BME280;1813;52.016;8.714;2023-03-20T00:52:28;-16261.94;;;-139.71;83.12
3598;BME280;1813;52.016;8.714;2023-03-20T00:55:02;-16261.94;;;-139.71;83.27
3598;BME280;1813;52.016;8.714;2023-03-20T00:57:40;-16261.94;;;-139.71;83.31
3598;BME280;1813;52.016;8.714;2023-03-20T01:00:22;-16261.94;;;-139.71;83.09
3598;BME280;1813;52.016;8.714;2023-03-20T01:02:57;-16261.94;;;-139.71;82.69
3598;BME280;1813;52.016;8.714;2023-03-20T01:05:33;-16261.94;;;-139.71;82.73
3598;BME280;1813;52.016;8.714;2023-03-20T01:08:12;-16261.94;;;-139.71;82.57
3598;BME280;1813;52.016;8.714;2023-03-20T01:10:49;-16261.94;;;-139.71;82.72
3598;BME280;1813;52.016;8.714;2023-03-20T01:13:28;-16261.94;;;-139.71;82.82
3598;BME280;1813;52.016;8.714;2023-03-20T01:16:02;-16261.94;;;-139.71;82.87
3598;BME280;1813;52.016;8.714;2023-03-20T01:18:35;-16261.94;;;-139.71;83.09
3598;BME280;1813;52.016;8.714;2023-03-20T01:21:12;-16261.94;;;-139.71;83.19
3598;BME280;1813;52.016;8.714;2023-03-20T01:23:46;-16261.94;;;-139.71;82.80
3598;BME280;1813;52.016;8.714;2023-03-20T01:26:34;-16261.94;;;-139.71;82.67
3598;BME280;1813;52.016;8.714;2023-03-20T01:29:16;-16261.94;;;-139.71;82.64
3598;BME280;1813;52.016;8.714;2023-03-20T01:31:51;-16261.94;;;-139.71;83.09
3598;BME280;1813;52.016;8.714;2023-03-20T01:34:27;-16261.94;;;-139.71;82.66
3598;BME280;1813;52.016;8.714;2023-03-20T01:37:08;-16261.94;;;-139.71;81.99
3598;BME280;1813;52.016;8.714;2023-03-20T01:39:44;-16261.94;;;-139.71;81.39
3598;BME280;1813;52.016;8.714;2023-03-20T01:42:19;-16261.94;;;-139.71;81.23
3598;BME280;1813;52.016;8.714;2023-03-20T01:44:53;-16261.94;;;-139.71;81.05
3598;BME280;1813;52.016;8.714;2023-03-20T01:47:27;-16261.94;;;-139.71;81.59
3598;BME280;1813;52.016;8.714;2023-03-20T01:50:28;-16261.94;;;-139.71;81.88
3598;BME280;1813;52.016;8.714;2023-03-20T01:53:14;-16261.94;;;-139.71;82.22
3598;BME280;1813;52.016;8.714;2023-03-20T01:55:56;-16261.94;;;-139.71;83.01
3598;BME280;1813;52.016;8.714;2023-03-20T01:58:41;-16261.94;;;-139.71;83.20
3598;BME280;1813;52.016;8.714;2023-03-20T02:01:16;-16261.94;;;-139.71;83.52
3598;BME280;1813;52.016;8.714;2023-03-20T02:03:52;-16261.94;;;-139.71;84.09
3598;BME280;1813;52.016;8.714;2023-03-20T02:06:56;-16261.94;;;-139.71;84.98
3598;BME280;1813;52.016;8.714;2023-03-20T02:09:55;-16261.94;;;-139.71;85.60
3598;BME280;1813;52.016;8.714;2023-03-20T02:12:40;-16261.94;;;-139.71;86.25
3598;BME280;1813;52.016;8.714;2023-03-20T02:15:18;-16261.94;;;-139.71;86.55
3598;BME280;1813;52.016;8.714;2023-03-20T02:18:10;-16261.94;;;-139.71;86.75
3598;BME280;1813;52.016;8.714;2023-03-20T02:20:59;-16261.94;;;-139.71;86.80
3598;BME280;1813;52.016;8.714;2023-03-20T02:26:52;-16261.94;;;-139.71;86.88
3598;BME280;1813;52.016;8.714;2023-03-20T02:39:07;-16261.94;;;-139.71;86.99
3598;BME280;1813;52.016;8.714;2023-03-20T02:41:47;-16261.94;;;-139.71;86.85
3598;BME280;1813;52.016;8.714;2023-03-20T02:44:31;-16261.94;;;-139.71;86.89
3598;BME280;1813;52.016;8.714;2023-03-20T02:47:10;-16261.94;;;-139.71;86.92
3598;BME280;1813;52.016;8.714;2023-03-20T02:49:52;-16261.94;;;-139.71;87.14
3598;BME280;1813;52.016;8.714;2023-03-20T02:52:34;-16261.94;;;-139.71;87.27
3598;BME280;1813;52.016;8.714;2023-03-20T02:55:19;-16261.94;;;-139.71;87.35
3598;BME280;1813;52.016;8.714;2023-03-20T02:58:08;-16261.94;;;-139.71;87.60
3598;BME280;1813;52.016;8.714;2023-03-20T03:00:49;-16261.94;;;-139.71;87.48
3598;BME280;1813;52.016;8.714;2023-03-20T03:03:28;-16261.94;;;-139.71;87.63
3598;BME280;1813;52.016;8.714;2023-03-20T03:06:08;-16261.94;;;-139.71;87.68
3598;BME280;1813;52.016;8.714;2023-03-20T03:08:48;-16261.94;;;-139.71;87.62
3598;BME280;1813;52.016;8.714;2023-03-20T03:11:27;-16261.94;;;-139.71;87.65
3598;BME280;1813;52.016;8.714;2023-03-20T03:14:01;-16261.94;;;-139.71;87.55
3598;BME280;1813;52.016;8.714;2023-03-20T03:16:39;-16261.94;;;-139.71;87.77
3598;BME280;1813;52.016;8.714;2023-03-20T03:19:16;-16261.94;;;-139.71;87.86
3598;BME280;1813;52.016;8.714;2023-03-20T03:21:51;-16261.94;;;-139.71;87.93
3598;BME280;1813;52.016;8.714;2023-03-20T03:24:28;-16261.94;;;-139.71;88.23
3598;BME280;1813;52.016;8.714;2023-03-20T03:27:11;-16261.94;;;-139.71;88.33
3598;BME280;1813;52.016;8.714;2023-03-20T03:29:51;-16261.94;;;-139.71;88.40
3598;BME280;1813;52.016;8.714;2023-03-20T03:32:28;-16261.94;;;-139.71;88.63
3598;BME280;1813;52.016;8.714;2023-03-20T03:35:04;-16261.94;;;-139.71;88.75
3598;BME280;1813;52.016;8.714;2023-03-20T03:37:45;-16261.94;;;-139.71;88.72
3598;BME280;1813;52.016;8.714;2023-03-20T03:40:29;-16261.94;;;-139.71;88.54
3598;BME280;1813;52.016;8.714;2023-03-20T03:43:13;-16261.94;;;-139.71;88.45
3598;BME280;1813;52.016;8.714;2023-03-20T03:45:53;-16261.94;;;-139.71;88.55
3598;BME280;1813;52.016;8.714;2023-03-20T03:48:32;-16261.94;;;-139.71;88.43
3598;BME280;1813;52.016;8.714;2023-03-20T03:51:12;-16261.94;;;-139.71;88.53
3598;BME280;1813;52.016;8.714;2023-03-20T03:54:04;-16261.94;;;-139.71;88.37
3598;BME280;1813;52.016;8.714;2023-03-20T03:56:42;-16261.94;;;-139.71;88.35
3598;BME280;1813;52.016;8.714;2023-03-20T03:59:25;-16261.94;;;-139.71;88.41
3598;BME280;1813;52.016;8.714;2023-03-20T04:02:01;-16261.94;;;-139.71;88.18
3598;BME280;1813;52.016;8.714;2023-03-20T04:04:41;-16261.94;;;-139.71;88.25
3598;BME280;1813;52.016;8.714;2023-03-20T04:07:16;-16261.94;;;-139.71;88.34
3598;BME280;1813;52.016;8.714;2023-03-20T04:09:51;-16261.94;;;-139.71;88.29
3598;BME280;1813;52.016;8.714;2023-03-20T04:12:39;-16261.94;;;-139.71;88.22
3598;BME280;1813;52.016;8.714;2023-03-20T04:15:18;-16261.94;;;-139.71;88.27
3598;BME280;1813;52.016;8.714;2023-03-20T04:17:52;-16261.94;;;-139.71;88.24
3598;BME280;1813;52.016;8.714;2023-03-20T04:20:26;-16261.94;;;-139.71;88.23
3598;BME280;1813;52.016;8.714;2023-03-20T04:23:00;-16261.94;;;-139.71;88.05
3598;BME280;1813;52.016;8.714;2023-03-20T04:25:35;-16261.94;;;-139.71;87.87
3598;BME280;1813;52.016;8.714;2023-03-20T04:28:09;-16261.94;;;-139.71;87.72
3598;BME280;1813;52.016;8.714;2023-03-20T04:31:08;-16261.94;;;-139.71;87.68
3598;BME280;1813;52.016;8.714;2023-03-20T04:33:57;-16261.94;;;-139.71;87.52
3598;BME280;1813;52.016;8.714;2023-03-20T04:36:54;-16261.94;;;-139.71;87.42
3598;BME280;1813;52.016;8.714;2023-03-20T04:39:39;-16261.94;;;-139.71;87.35
3598;BME280;1813;52.016;8.714;2023-03-20T04:42:15;-16261.94;;;-139.71;87.21
3598;BME280;1813;52.016;8.714;2023-03-20T04:44:49;-16261.94;;;-139.71;87.04
3598;BME280;1813;52.016;8.714;2023-03-20T04:47:25;-16261.94;;;-139.71;86.84
3598;BME280;1813;52.016;8.714;2023-03-20T04:49:59;-16261.94;;;-139.71;86.92
3598;BME280;1813;52.016;8.714;2023-03-20T04:52:35;-16261.94;;;-139.71;86.77
3598;BME280;1813;52.016;8.714;2023-03-20T04:55:09;-16261.94;;;-139.71;86.77
3598;BME280;1813;52.016;8.714;2023-03-20T04:57:43;-16261.94;;;-139.71;86.59
3598;BME280;1813;52.016;8.714;2023-03-20T05:00:18;-16261.94;;;-139.71;86.45
3598;BME280;1813;52.016;8.714;2023-03-20T05:02:54;-16261.94;;;-139.71;86.13
3598;BME280;1813;52.016;8.714;2023-03-20T05:05:28;-16261.94;;;-139.71;85.91
3598;BME280;1813;52.016;8.714;2023-03-20T05:08:03;-16261.94;;;-139.71;85.56
3598;BME280;1813;52.016;8.714;2023-03-20T05:10:40;-16261.94;;;-139.71;85.51
3598;BME280;1813;52.016;8.714;2023-03-20T05:13:32;-16261.94;;;-139.71;85.31
3598;BME280;1813;52.016;8.714;2023-03-20T05:16:39;-16261.94;;;-139.71;85.09
3598;BME280;1813;52.016;8.714;2023-03-20T05:19:34;-16261.94;;;-139.71;85.01
3598;BME280;1813;52.016;8.714;2023-03-20T05:22:11;-16261.94;;;-139.71;84.78
3598;BME280;1813;52.016;8.714;2023-03-20T05:25:04;-16261.94;;;-139.71;84.76
3598;BME280;1813;52.016;8.714;2023-03-20T05:27:56;-16261.94;;;-139.71;84.74
3598;BME280;1813;52.016;8.714;2023-03-20T05:30:53;-16261.94;;;-139.71;84.50
3598;BME280;1813;52.016;8.714;2023-03-20T05:33:56;-16261.94;;;-139.71;84.47
3598;BME280;1813;52.016;8.714;2023-03-20T05:36:55;-16261.94;;;-139.71;84.26
3598;BME280;1813;52.016;8.714;2023-03-20T05:39:45;-16261.94;;;-139.71;84.17
3598;BME280;1813;52.016;8.714;2023-03-20T05:42:32;-16261.94;;;-139.71;84.02
3598;BME280;1813;52.016;8.714;2023-03-20T05:45:24;-16261.94;;;-139.71;83.52
3598;BME280;1813;52.016;8.714;2023-03-20T05:48:16;-16261.94;;;-139.71;83.44
3598;BME280;1813;52.016;8.714;2023-03-20T05:51:10;-16261.94;;;-139.71;83.29
3598;BME280;1813;52.016;8.714;2023-03-20T05:53:56;-16261.94;;;-139.71;83.09
3598;BME280;1813;52.016;8.714;2023-03-20T05:56:48;-16261.94;;;-139.71;83.17
3598;BME280;1813;52.016;8.714;2023-03-20T05:59:37;-16261.94;;;-139.71;83.30
3598;BME280;1813;52.016;8.714;2023-03-20T06:02:30;-16261.94;;;-139.71;83.37
3598;BME280;1813;52.016;8.714;2023-03-20T06:05:12;-16261.94;;;-139.71;83.24
3598;BME280;1813;52.016;8.714;2023-03-20T06:07:51;-16261.94;;;-139.71;83.24
3598;BME280;1813;52.016;8.714;2023-03-20T06:10:27;-16261.94;;;-139.71;83.32
3598;BME280;1813;52.016;8.714;2023-03-20T06:13:01;-16261.94;;;-139.71;83.01
3598;BME280;1813;52.016;8.714;2023-03-20T06:15:35;-16261.94;;;-139.71;82.92
3598;BME280;1813;52.016;8.714;2023-03-20T06:18:18;-16261.94;;;-139.71;82.77
3598;BME280;1813;52.016;8.714;2023-03-20T06:20:53;-16261.94;;;-139.71;82.52
3598;BME280;1813;52.016;8.714;2023-03-20T06:23:28;-16261.94;;;-139.71;82.22
3598;BME280;1813;52.016;8.714;2023-03-20T06:26:07;-16261.94;;;-139.71;82.07
3598;BME280;1813;52.016;8.714;2023-03-20T06:28:55;-16261.94;;;-139.71;82.11
3598;BME280;1813;52.016;8.714;2023-03-20T06:31:29;-16261.94;;;-139.71;81.99
3598;BME280;1813;52.016;8.714;2023-03-20T06:34:05;-16261.94;;;-139.71;82.07
3598;BME280;1813;52.016;8.714;2023-03-20T06:36:44;-16261.94;;;-139.71;82.12
3598;BME280;1813;52.016;8.714;2023-03-20T06:39:25;-16261.94;;;-139.71;82.21
3598;BME280;1813;52.016;8.714;2023-03-20T06:42:02;-16261.94;;;-139.71;82.22
3598;BME280;1813;52.016;8.714;2023-03-20T06:44:36;-16261.94;;;-139.71;82.20
3598;BME280;1813;52.016;8.714;2023-03-20T06:47:28;-16261.94;;;-139.71;82.27
3598;BME280;1813;52.016;8.714;2023-03-20T06:50:02;-16261.94;;;-139.71;82.24
3598;BME280;1813;52.016;8.714;2023-03-20T06:52:36;-16261.94;;;-139.71;82.11
3598;BME280;1813;52.016;8.714;2023-03-20T06:55:40;-16261.94;;;-139.71;82.07
3598;BME280;1813;52.016;8.714;2023-03-20T06:58:17;-16261.94;;;-139.71;82.17
3598;BME280;1813;52.016;8.714;2023-03-20T07:00:54;-16261.94;;;-139.71;82.11
3598;BME280;1813;52.016;8.714;2023-03-20T07:03:28;-16261.94;;;-139.71;82.06
3598;BME280;1813;52.016;8.714;2023-03-20T07:06:03;-16261.94;;;-139.71;82.14
3598;BME280;1813;52.016;8.714;2023-03-20T07:08:37;-16261.94;;;-139.71;81.77
3598;BME280;1813;52.016;8.714;2023-03-20T07:11:11;-16261.94;;;-139.71;81.60
3598;BME280;1813;52.016;8.714;2023-03-20T07:13:48;-16261.94;;;-139.71;81.35
3598;BME280;1813;52.016;8.714;2023-03-20T07:16:32;-16261.94;;;-139.71;81.49
3598;BME280;1813;52.016;8.714;2023-03-20T07:19:06;-16261.94;;;-139.71;81.45
3598;BME280;1813;52.016;8.714;2023-03-20T07:21:43;-16261.94;;;-139.71;81.42
3598;BME280;1813;52.016;8.714;2023-03-20T07:24:19;-16261.94;;;-139.71;81.30
3598;BME280;1813;52.016;8.714;2023-03-20T07:26:53;-16261.94;;;-139.71;81.04
3598;BME280;1813;52.016;8.714;2023-03-20T07:29:29;-16261.94;;;-139.71;80.90
3598;BME280;1813;52.016;8.714;2023-03-20T07:32:03;-16261.94;;;-139.71;80.88
3598;BME280;1813;52.016;8.714;2023-03-20T07:34:41;-16261.94;;;-139.71;80.91
3598;BME280;1813;52.016;8.714;2023-03-20T07:37:15;-16261.94;;;-139.71;80.75
3598;BME280;1813;52.016;8.714;2023-03-20T07:40:00;-16261.94;;;-139.71;80.90
3598;BME280;1813;52.016;8.714;2023-03-20T07:42:36;-16261.94;;;-139.71;80.97
3598;BME280;1813;52.016;8.714;2023-03-20T07:45:20;-16261.94;;;-139.71;81.02
3598;BME280;1813;52.016;8.714;2023-03-20T07:47:54;-16261.94;;;-139.71;81.20
3598;BME280;1813;52.016;8.714;2023-03-20T07:50:28;-16261.94;;;-139.71;81.17
3598;BME280;1813;52.016;8.714;2023-03-20T07:53:03;-16261.94;;;-139.71;81.04
3598;BME280;1813;52.016;8.714;2023-03-20T07:55:37;-16261.94;;;-139.71;80.79
3598;BME280;1813;52.016;8.714;2023-03-20T07:58:14;-16261.94;;;-139.71;80.49
3598;BME280;1813;52.016;8.714;2023-03-20T08:00:50;-16261.94;;;-139.71;80.28
3598;BME280;1813;52.016;8.714;2023-03-20T08:03:24;-16261.94;;;-139.71;80.07
3598;BME280;1813;52.016;8.714;2023-03-20T08:05:58;-16261.94;;;-139.71;79.78
3598;BME280;1813;52.016;8.714;2023-03-20T08:08:33;-16261.94;;;-139.71;79.68
3598;BME280;1813;52.016;8.714;2023-03-20T08:11:07;-16261.94;;;-139.71;79.21
3598;BME280;1813;52.016;8.714;2023-03-20T08:13:41;-16261.94;;;-139.71;78.75
3598;BME280;1813;52.016;8.714;2023-03-20T08:16:17;-16261.94;;;-139.71;78.39
3598;BME280;1813;52.016;8.714;2023-03-20T08:18:51;-16261.94;;;-139.71;77.92
3598;BME280;1813;52.016;8.714;2023-03-20T08:21:31;-16261.94;;;-139.71;77.56
3598;BME280;1813;52.016;8.714;2023-03-20T08:24:06;-16261.94;;;-139.71;77.49
3598;BME280;1813;52.016;8.714;2023-03-20T08:26:39;-16261.94;;;-139.71;77.51
3598;BME280;1813;52.016;8.714;2023-03-20T08:29:13;-16261.94;;;-139.71;77.42
3598;BME280;1813;52.016;8.714;2023-03-20T08:31:51;-16261.94;;;-139.71;77.42
3598;BME280;1813;52.016;8.714;2023-03-20T08:34:25;-16261.94;;;-139.71;77.49
3598;BME280;1813;52.016;8.714;2023-03-20T08:37:01;-16261.94;;;-139.71;77.41
3598;BME280;1813;52.016;8.714;2023-03-20T08:39:37;-16261.94;;;-139.71;77.42
3598;BME280;1813;52.016;8.714;2023-03-20T08:42:11;-16261.94;;;-139.71;77.42
3598;BME280;1813;52.016;8.714;2023-03-20T08:44:45;-16261.94;;;-139.71;77.08
3598;BME280;1813;52.016;8.714;2023-03-20T08:47:21;-16261.94;;;-139.71;77.00
3598;BME280;1813;52.016;8.714;2023-03-20T08:49:55;-16261.94;;;-139.71;76.54
3598;BME280;1813;52.016;8.714;2023-03-20T08:52:29;-16261.94;;;-139.71;76.05
3598;BME280;1813;52.016;8.714;2023-03-20T08:55:04;-16261.94;;;-139.71;75.33
3598;BME280;1813;52.016;8.714;2023-03-20T08:57:38;-16261.94;;;-139.71;73.47
3598;BME280;1813;52.016;8.714;2023-03-20T09:00:14;-16261.94;;;-139.71;72.23
3598;BME280;1813;52.016;8.714;2023-03-20T09:02:52;-16261.94;;;-139.71;69.84
3598;BME280;1813;52.016;8.714;2023-03-20T09:05:26;-16261.94;;;-139.71;69.00
3598;BME280;1813;52.016;8.714;2023-03-20T09:08:00;-16261.94;;;-139.71;68.63
3598;BME280;1813;52.016;8.714;2023-03-20T09:10:34;-16261.94;;;-139.71;67.85
3598;BME280;1813;52.016;8.714;2023-03-20T09:13:08;-16261.94;;;-139.71;67.49
3598;BME280;1813;52.016;8.714;2023-03-20T09:15:42;-16261.94;;;-139.71;67.58
3598;BME280;1813;52.016;8.714;2023-03-20T09:18:19;-16261.94;;;-139.71;67.36
3598;BME280;1813;52.016;8.714;2023-03-20T09:20:53;-16261.94;;;-139.71;67.31
3598;BME280;1813;52.016;8.714;2023-03-20T09:23:28;-16261.94;;;-139.71;67.63
3598;BME280;1813;52.016;8.714;2023-03-20T09:26:02;-16261.94;;;-139.71;66.87
3598;BME280;1813;52.016;8.714;2023-03-20T09:28:36;-16261.94;;;-139.71;65.85
3598;BME280;1813;52.016;8.714;2023-03-20T09:31:10;-16261.94;;;-139.71;65.84
3598;BME280;1813;52.016;8.714;2023-03-20T09:33:47;-16261.94;;;-139.71;65.40
3598;BME280;1813;52.016;8.714;2023-03-20T09:36:20;-16261.94;;;-139.71;65.29
3598;BME280;1813;52.016;8.714;2023-03-20T09:38:54;-16261.94;;;-139.71;64.92
3598;BME280;1813;52.016;8.714;2023-03-20T09:41:28;-16261.94;;;-139.71;64.74
3598;BME280;1813;52.016;8.714;2023-03-20T09:44:11;-16261.94;;;-139.71;65.00
3598;BME280;1813;52.016;8.714;2023-03-20T09:46:59;-16261.94;;;-139.71;64.87
3598;BME280;1813;52.016;8.714;2023-03-20T09:49:44;-16261.94;;;-139.71;64.35
3598;BME280;1813;52.016;8.714;2023-03-20T09:52:25;-16261.94;;;-139.71;64.79
3598;BME280;1813;52.016;8.714;2023-03-20T09:55:02;-16261.94;;;-139.71;65.16
3598;BME280;1813;52.016;8.714;2023-03-20T09:57:40;-16261.94;;;-139.71;65.20
3598;BME280;1813;52.016;8.714;2023-03-20T10:00:17;-16261.94;;;-139.71;65.11
3598;BME280;1813;52.016;8.714;2023-03-20T10:02:55;-16261.94;;;-139.71;65.04
3598;BME280;1813;52.016;8.714;2023-03-20T10:05:36;-16261.94;;;-139.71;64.91
3598;BME280;1813;52.016;8.714;2023-03-20T10:08:12;-16261.94;;;-139.71;64.37
3598;BME280;1813;52.016;8.714;2023-03-20T10:10:50;-16261.94;;;-139.71;64.51
3598;BME280;1813;52.016;8.714;2023-03-20T10:13:38;-16261.94;;;-139.71;64.36
3598;BME280;1813;52.016;8.714;2023-03-20T10:16:21;-16261.94;;;-139.71;64.00
3598;BME280;1813;52.016;8.714;2023-03-20T10:19:02;-16261.94;;;-139.71;62.89
3598;BME280;1813;52.016;8.714;2023-03-20T10:21:42;-16261.94;;;-139.71;62.80
3598;BME280;1813;52.016;8.714;2023-03-20T10:24:22;-16261.94;;;-139.71;62.18
3598;BME280;1813;52.016;8.714;2023-03-20T10:27:03;-16261.94;;;-139.71;61.50
3598;BME280;1813;52.016;8.714;2023-03-20T10:29:46;-16261.94;;;-139.71;61.77
3598;BME280;1813;52.016;8.714;2023-03-20T10:32:25;-16261.94;;;-139.71;61.65
3598;BME280;1813;52.016;8.714;2023-03-20T10:35:12;-16261.94;;;-139.71;60.91
3598;BME280;1813;52.016;8.714;2023-03-20T10:38:04;-16261.94;;;-139.71;60.71
3598;BME280;1813;52.016;8.714;2023-03-20T10:40:41;-16261.94;;;-139.71;59.26
3598;BME280;1813;52.016;8.714;2023-03-20T10:43:17;-16261.94;;;-139.71;59.81
3598;BME280;1813;52.016;8.714;2023-03-20T10:45:57;-16261.94;;;-139.71;59.20
3598;BME280;1813;52.016;8.714;2023-03-20T10:48:36;-16261.94;;;-139.71;58.27
3598;BME280;1813;52.016;8.714;2023-03-20T10:51:13;-16261.94;;;-139.71;57.18
3598;BME280;1813;52.016;8.714;2023-03-20T10:53:53;-16261.94;;;-139.71;58.22
3598;BME280;1813;52.016;8.714;2023-03-20T10:56:31;-16261.94;;;-139.71;56.90
3598;BME280;1813;52.016;8.714;2023-03-20T10:59:16;-16261.94;;;-139.71;56.33
3598;BME280;1813;52.016;8.714;2023-03-20T11:01:53;-16261.94;;;-139.71;56.62
3598;BME280;1813;52.016;8.714;2023-03-20T11:04:26;-16261.94;;;-139.71;57.31
3598;BME280;1813;52.016;8.714;2023-03-20T11:07:07;-16261.94;;;-139.71;56.88
3598;BME280;1813;52.016;8.714;2023-03-20T11:10:06;-16261.94;;;-139.71;56.38
3598;BME280;1813;52.016;8.714;2023-03-20T11:12:42;-16261.94;;;-139.71;55.71
3598;BME280;1813;52.016;8.714;2023-03-20T11:15:22;-16261.94;;;-139.71;55.79
3598;BME280;1813;52.016;8.714;2023-03-20T11:17:58;-16261.94;;;-139.71;55.47
3598;BME280;1813;52.016;8.714;2023-03-20T11:20:34;-16261.94;;;-139.71;54.87
3598;BME280;1813;52.016;8.714;2023-03-20T11:23:14;-16261.94;;;-139.71;53.81
3598;BME280;1813;52.016;8.714;2023-03-20T11:25:56;-16261.94;;;-139.71;53.06
3598;BME280;1813;52.016;8.714;2023-03-20T11:28:32;-16261.94;;;-139.71;52.82
3598;BME280;1813;52.016;8.714;2023-03-20T11:31:15;-16261.94;;;-139.71;53.40
3598;BME280;1813;52.016;8.714;2023-03-20T11:33:51;-16261.94;;;-139.71;53.97
3598;BME280;1813;52.016;8.714;2023-03-20T11:36:27;-16261.94;;;-139.71;53.17
3598;BME280;1813;52.016;8.714;2023-03-20T11:39:06;-16261.94;;;-139.71;52.96
3598;BME280;1813;52.016;8.714;2023-03-20T11:41:46;-16261.94;;;-139.71;52.65
3598;BME280;1813;52.016;8.714;2023-03-20T11:44:23;-16261.94;;;-139.71;52.51
3598;BME280;1813;52.016;8.714;2023-03-20T11:46:59;-16261.94;;;-139.71;52.07
3598;BME280;1813;52.016;8.714;2023-03-20T11:49:44;-16261.94;;;-139.71;52.07
3598;BME280;1813;52.016;8.714;2023-03-20T11:52:23;-16261.94;;;-139.71;51.59
3598;BME280;1813;52.016;8.714;2023-03-20T11:55:00;-16261.94;;;-139.71;50.98
3598;BME280;1813;52.016;8.714;2023-03-20T11:57:40;-16261.94;;;-139.71;50.64
3598;BME280;1813;52.016;8.714;2023-03-20T12:00:17;-16261.94;;;-139.71;49.87
3598;BME280;1813;52.016;8.714;2023-03-20T12:02:52;-16261.94;;;-139.71;50.14
3598;BME280;1813;52.016;8.714;2023-03-20T12:05:29;-16261.94;;;-139.71;50.54
3598;BME280;1813;52.016;8.714;2023-03-20T12:08:06;-16261.94;;;-139.71;50.13
3598;BME280;1813;52.016;8.714;2023-03-20T12:10:47;-16261.94;;;-139.71;49.92
3598;BME280;1813;52.016;8.714;2023-03-20T12:13:28;-16261.94;;;-139.71;50.37
3598;BME280;1813;52.016;8.714;2023-03-20T12:16:05;-16261.94;;;-139.71;50.61
3598;BME280;1813;52.016;8.714;2023-03-20T12:18:44;-16261.94;;;-139.71;50.02
3598;BME280;1813;52.016;8.714;2023-03-20T12:21:21;-16261.94;;;-139.71;49.41
3598;BME280;1813;52.016;8.714;2023-03-20T12:23:59;-16261.94;;;-139.71;49.11
3598;BME280;1813;52.016;8.714;2023-03-20T12:26:41;-16261.94;;;-139.71;49.41
3598;BME280;1813;52.016;8.714;2023-03-20T12:29:25;-16261.94;;;-139.71;49.76
3598;BME280;1813;52.016;8.714;2023-03-20T12:32:02;-16261.94;;;-139.71;49.51
3598;BME280;1813;52.016;8.714;2023-03-20T12:34:41;-16261.94;;;-139.71;48.76
3598;BME280;1813;52.016;8.714;2023-03-20T12:37:16;-16261.94;;;-139.71;47.71
3598;BME280;1813;52.016;8.714;2023-03-20T12:39:53;-16261.94;;;-139.71;47.66
3598;BME280;1813;52.016;8.714;2023-03-20T12:42:35;-16261.94;;;-139.71;47.61
3598;BME280;1813;52.016;8.714;2023-03-20T12:45:17;-16261.94;;;-139.71;47.04
3598;BME280;1813;52.016;8.714;2023-03-20T12:48:11;-16261.94;;;-139.71;46.39
3598;BME280;1813;52.016;8.714;2023-03-20T12:50:52;-16261.94;;;-139.71;46.57
3598;BME280;1813;52.016;8.714;2023-03-20T12:53:48;-16261.94;;;-139.71;46.80
3598;BME280;1813;52.016;8.714;2023-03-20T12:56:35;-16261.94;;;-139.71;47.30
3598;BME280;1813;52.016;8.714;2023-03-20T12:59:20;-16261.94;;;-139.71;47.08
3598;BME280;1813;52.016;8.714;2023-03-20T13:02:02;-16261.94;;;-139.71;46.72
3598;BME280;1813;52.016;8.714;2023-03-20T13:04:50;-16261.94;;;-139.71;46.43
3598;BME280;1813;52.016;8.714;2023-03-20T13:07:40;-16261.94;;;-139.71;47.01
3598;BME280;1813;52.016;8.714;2023-03-20T13:10:20;-16261.94;;;-139.71;46.81
3598;BME280;1813;52.016;8.714;2023-03-20T13:13:04;-16261.94;;;-139.71;46.53
3598;BME280;1813;52.016;8.714;2023-03-20T13:15:51;-16261.94;;;-139.71;46.45
3598;BME280;1813;52.016;8.714;2023-03-20T13:18:40;-16261.94;;;-139.71;46.63
3598;BME280;1813;52.016;8.714;2023-03-20T13:21:24;-16261.94;;;-139.71;46.96
3598;BME280;1813;52.016;8.714;2023-03-20T13:24:13;-16261.94;;;-139.71;47.24
3598;BME280;1813;52.016;8.714;2023-03-20T13:26:55;-16261.94;;;-139.71;47.06
3598;BME280;1813;52.016;8.714;2023-03-20T13:29:42;-16261.94;;;-139.71;47.20
3598;BME280;1813;52.016;8.714;2023-03-20T13:32:26;-16261.94;;;-139.71;47.41
3598;BME280;1813;52.016;8.714;2023-03-20T13:35:18;-16261.94;;;-139.71;48.14
3598;BME280;1813;52.016;8.714;2023-03-20T13:37:56;-16261.94;;;-139.71;48.14
3598;BME280;1813;52.016;8.714;2023-03-20T13:40:36;-16261.94;;;-139.71;48.01
3598;BME280;1813;52.016;8.714;2023-03-20T13:43:23;-16261.94;;;-139.71;47.96
3598;BME280;1813;52.016;8.714;2023-03-20T13:46:02;-16261.94;;;-139.71;48.54
3598;BME280;1813;52.016;8.714;2023-03-20T13:48:39;-16261.94;;;-139.71;48.95
3598;BME280;1813;52.016;8.714;2023-03-20T13:51:22;-16261.94;;;-139.71;49.34
3598;BME280;1813;52.016;8.714;2023-03-20T13:54:17;-16261.94;;;-139.71;48.88
3598;BME280;1813;52.016;8.714;2023-03-20T13:56:58;-16261.94;;;-139.71;48.96
3598;BME280;1813;52.016;8.714;2023-03-20T13:59:46;-16261.94;;;-139.71;49.57
3598;BME280;1813;52.016;8.714;2023-03-20T14:02:48;-16261.94;;;-139.71;49.81
3598;BME280;1813;52.016;8.714;2023-03-20T14:05:25;-16261.94;;;-139.71;49.89
3598;BME280;1813;52.016;8.714;2023-03-20T14:08:21;-16261.94;;;-139.71;49.86